createdAt,value
2022-11-29T00:02:47.291Z,42.9
2022-11-29T00:07:47.755Z,42.9
2022-11-29T00:12:48.184Z,42.9
2022-11-29T00:17:48.610Z,42.8
2022-11-29T00:22:49.038Z,42.7
2022-11-29T00:27:49.464Z,42.7
2022-11-29T00:32:49.874Z,42.6
2022-11-29T00:37:50.520Z,42.6
2022-11-29T00:42:50.956Z,42.6
2022-11-29T00:47:51.377Z,42.5
2022-11-29T00:52:51.790Z,42.4
2022-11-29T00:57:52.197Z,42.4
2022-11-29T01:02:52.622Z,42.4
2022-11-29T01:07:53.344Z,42.3
2022-11-29T01:12:53.801Z,42.2
2022-11-29T01:17:54.223Z,42.2
2022-11-29T01:22:54.899Z,42.1
2022-11-29T01:27:55.292Z,42.1
2022-11-29T01:32:55.674Z,42.1
2022-11-29T01:37:56.353Z,42
2022-11-29T01:42:56.738Z,41.9
2022-11-29T01:47:57.278Z,41.9
2022-11-29T01:52:57.650Z,41.8
2022-11-29T01:57:58.287Z,41.8
2022-11-29T02:02:58.665Z,41.7
2022-11-29T02:07:59.130Z,41.7
2022-11-29T02:12:59.726Z,41.6
2022-11-29T02:18:00.107Z,41.6
2022-11-29T02:23:00.679Z,41.6
2022-11-29T02:28:01.034Z,41.5
2022-11-29T02:33:01.364Z,41.4
2022-11-29T02:38:01.784Z,41.4
2022-11-29T02:43:02.111Z,41.4
2022-11-29T02:48:02.686Z,41.3
2022-11-29T02:53:03.028Z,41.2
2022-11-29T02:58:03.391Z,41.2
2022-11-29T03:03:03.736Z,41.2
2022-11-29T03:08:04.067Z,41.1
2022-11-29T03:13:04.375Z,41.1
2022-11-29T03:18:04.956Z,41.1
2022-11-29T03:23:05.501Z,41
2022-11-29T03:28:05.829Z,40.9
2022-11-29T03:33:06.191Z,40.9
2022-11-29T03:38:06.819Z,40.9
2022-11-29T03:43:07.175Z,40.8
2022-11-29T03:48:07.785Z,40.8
2022-11-29T03:53:08.137Z,40.8
2022-11-29T03:58:08.531Z,40.7
2022-11-29T04:03:08.913Z,40.6
2022-11-29T04:08:09.307Z,40.6
2022-11-29T04:13:09.677Z,40.6
2022-11-29T04:18:10.083Z,40.5
2022-11-29T04:23:10.428Z,40.5
2022-11-29T04:28:10.790Z,40.4
2022-11-29T04:33:11.134Z,40.4
2022-11-29T04:38:11.523Z,40.4
2022-11-29T04:43:11.879Z,40.3
2022-11-29T04:48:12.214Z,40.2
2022-11-29T04:53:12.542Z,40.2
2022-11-29T04:58:12.940Z,40.2
2022-11-29T05:03:13.321Z,40.1
2022-11-29T05:08:13.887Z,40.1
2022-11-29T05:13:14.463Z,40.1
2022-11-29T05:18:14.821Z,40
2022-11-29T05:23:15.149Z,40
2022-11-29T05:28:15.490Z,39.9
2022-11-29T05:33:15.803Z,39.9
2022-11-29T05:38:16.379Z,39.9
2022-11-29T05:43:16.915Z,39.8
2022-11-29T05:48:17.222Z,39.7
2022-11-29T05:53:17.776Z,39.7
2022-11-29T05:58:18.324Z,39.7
2022-11-29T06:03:18.677Z,39.6
2022-11-29T06:08:19.032Z,39.6
2022-11-29T06:13:19.556Z,39.6
2022-11-29T06:18:19.929Z,39.6
2022-11-29T06:23:20.244Z,39.5
2022-11-29T06:28:20.797Z,39.5
2022-11-29T06:33:21.356Z,39.4
2022-11-29T06:38:21.925Z,39.4
2022-11-29T06:43:22.231Z,39.4
2022-11-29T06:48:22.799Z,39.3
2022-11-29T06:53:23.330Z,39.2
2022-11-29T06:58:23.914Z,39.2
2022-11-29T07:03:24.461Z,39.2
2022-11-29T07:08:25.032Z,39.2
2022-11-29T07:13:25.595Z,39.1
2022-11-29T07:18:26.117Z,39.1
2022-11-29T07:23:26.625Z,39.1
2022-11-29T07:28:27.173Z,39
2022-11-29T07:33:27.563Z,39
2022-11-29T07:38:28.137Z,38.9
2022-11-29T07:43:28.702Z,38.9
2022-11-29T07:48:29.248Z,38.9
2022-11-29T07:53:29.849Z,38.8
2022-11-29T07:58:30.375Z,38.8
2022-11-29T08:03:30.949Z,38.8
2022-11-29T08:08:31.537Z,38.7
2022-11-29T08:13:32.086Z,38.7
2022-11-29T08:18:32.627Z,38.7
2022-11-29T08:23:33.184Z,38.6
2022-11-29T08:28:33.745Z,38.6
2022-11-29T08:33:34.047Z,38.6
2022-11-29T08:38:34.612Z,38.6
2022-11-29T08:43:34.929Z,38.5
2022-11-29T08:48:35.284Z,38.5
2022-11-29T08:53:35.818Z,38.4
2022-11-29T08:58:36.340Z,38.4
2022-11-29T09:03:36.890Z,38.4
2022-11-29T09:08:37.693Z,38.3
2022-11-29T09:13:38.349Z,38.3
2022-11-29T09:18:38.874Z,38.2
2022-11-29T09:23:39.413Z,38.2
2022-11-29T09:28:39.705Z,38.2
2022-11-29T09:33:40.235Z,38.2
2022-11-29T09:38:40.757Z,38.2
2022-11-29T09:43:41.325Z,38.1
2022-11-29T09:48:41.617Z,38.1
2022-11-29T09:53:42.336Z,38.1
2022-11-29T09:58:42.632Z,38
2022-11-29T10:03:43.196Z,38
2022-11-29T10:08:43.706Z,37.9
2022-11-29T10:13:43.929Z,37.9
2022-11-29T10:18:44.391Z,37.9
2022-11-29T10:23:44.891Z,37.9
2022-11-29T10:28:45.356Z,37.8
2022-11-29T10:33:45.843Z,37.8
2022-11-29T10:38:46.101Z,37.7
2022-11-29T10:43:46.362Z,37.7
2022-11-29T10:48:46.570Z,37.7
2022-11-29T10:53:47.018Z,37.7
2022-11-29T10:58:47.223Z,37.6
2022-11-29T11:03:51.481Z,37.6
2022-11-29T11:08:52.891Z,37.6
2022-11-29T11:13:53.142Z,37.6
2022-11-29T11:18:53.614Z,37.6
2022-11-29T11:23:54.064Z,37.5
2022-11-29T11:28:54.259Z,37.4
2022-11-29T11:33:54.465Z,37.4
2022-11-29T11:38:54.851Z,37.4
2022-11-29T11:43:55.093Z,37.4
2022-11-29T11:48:55.288Z,37.4
2022-11-29T11:53:55.513Z,37.3
2022-11-29T11:58:55.749Z,37.3
2022-11-29T12:03:55.964Z,37.2
2022-11-29T12:08:56.346Z,37.2
2022-11-29T12:13:56.798Z,37.2
2022-11-29T12:18:57.039Z,37.2
2022-11-29T12:23:57.290Z,37.1
2022-11-29T12:28:57.583Z,37.1
2022-11-29T12:33:58.024Z,37.1
2022-11-29T12:38:58.465Z,37.1
2022-11-29T12:43:59.309Z,37.1
2022-11-29T12:48:59.745Z,37
2022-11-29T12:53:59.965Z,37
2022-11-29T12:59:00.263Z,36.9
2022-11-29T13:04:00.504Z,36.9
2022-11-29T13:09:00.720Z,36.9
2022-11-29T13:14:20.014Z,36.9
2022-11-29T13:19:27.604Z,36.8
2022-11-29T13:24:28.093Z,36.8
2022-11-29T13:29:28.571Z,36.8
2022-11-29T13:34:29.024Z,36.7
2022-11-29T13:39:29.518Z,36.7
2022-11-29T13:44:29.777Z,36.7
2022-11-29T13:49:30.234Z,36.7
2022-11-29T13:54:30.679Z,36.6
2022-11-29T13:59:31.168Z,36.6
2022-11-29T14:04:31.393Z,36.6
2022-11-29T14:09:31.836Z,36.6
2022-11-29T14:14:32.044Z,36.6
2022-11-29T14:19:33.897Z,36.5
2022-11-29T14:24:34.310Z,36.5
2022-11-29T14:29:34.541Z,36.4
2022-11-29T14:34:34.996Z,36.4
2022-11-29T14:39:35.232Z,36.4
2022-11-29T14:44:35.425Z,36.4
2022-11-29T14:49:35.626Z,36.4
2022-11-29T14:54:35.844Z,36.3
2022-11-29T14:59:36.319Z,36.3
2022-11-29T15:04:36.564Z,36.2
2022-11-29T15:09:36.774Z,36.2
2022-11-29T15:14:36.975Z,36.2
2022-11-29T15:19:37.450Z,36.2
2022-11-29T15:24:37.916Z,36.2
2022-11-29T15:29:38.114Z,36.1
2022-11-29T15:34:38.319Z,36.1
2022-11-29T15:39:38.756Z,36.1
2022-11-29T15:44:39.152Z,36.1
2022-11-29T15:49:39.330Z,36.1
2022-11-29T15:54:39.769Z,36
2022-11-29T15:59:40.033Z,36
2022-11-29T16:04:45.180Z,36
2022-11-29T16:09:46.732Z,35.9
2022-11-29T16:14:47.185Z,35.9
2022-11-29T16:19:47.492Z,35.9
2022-11-29T16:24:47.927Z,35.9
2022-11-29T16:29:48.257Z,35.8
2022-11-29T16:34:48.791Z,35.8
2022-11-29T16:39:49.167Z,35.8
2022-11-29T16:44:49.600Z,35.7
2022-11-29T16:49:50.275Z,35.7
2022-11-29T16:54:50.510Z,35.7
2022-11-29T16:59:50.705Z,35.7
2022-11-29T17:04:50.896Z,35.7
2022-11-29T17:09:51.076Z,35.7
2022-11-29T17:14:51.510Z,35.6
2022-11-29T17:19:51.956Z,35.6
2022-11-29T17:24:52.252Z,36.7
2022-11-29T17:29:52.584Z,38.9
2022-11-29T17:34:52.932Z,41.5
2022-11-29T17:39:53.341Z,43.2
2022-11-29T17:44:54.064Z,43.5
2022-11-29T17:49:54.819Z,44.7
2022-11-29T17:54:55.564Z,45
2022-11-29T17:59:56.068Z,45
2022-11-29T18:04:56.554Z,44.9
2022-11-29T18:09:57.042Z,46.1
2022-11-29T18:14:57.573Z,46.2
2022-11-29T18:19:58.362Z,46.7
2022-11-29T18:25:16.089Z,46.9
2022-11-29T18:30:31.103Z,46.8
2022-11-29T18:35:31.690Z,46.8
2022-11-29T18:40:32.494Z,46.7
2022-11-29T18:45:33.277Z,46.7
2022-11-29T18:50:34.030Z,46.7
2022-11-29T18:55:34.828Z,46.7
2022-11-29T19:00:35.626Z,46.7
2022-11-29T19:05:36.741Z,46.6
2022-11-29T19:10:37.542Z,46.6
2022-11-29T19:15:38.435Z,46.6
2022-11-29T19:20:39.302Z,46.5
2022-11-29T19:25:40.075Z,46.5
2022-11-29T19:30:40.946Z,46.4
2022-11-29T19:35:41.530Z,46.4
2022-11-29T19:40:42.303Z,46.4
2022-11-29T19:45:43.089Z,46.3
2022-11-29T19:50:43.707Z,46.2
2022-11-29T19:55:44.483Z,46.2
2022-11-29T20:00:45.243Z,46.2
2022-11-29T20:05:46.037Z,46.2
2022-11-29T20:10:46.567Z,46.1
2022-11-29T20:15:47.385Z,46.1
2022-11-29T20:20:47.917Z,46.1
2022-11-29T20:25:48.499Z,46
2022-11-29T20:30:49.211Z,45.9
2022-11-29T20:35:50.088Z,45.9
2022-11-29T20:40:50.868Z,45.9
2022-11-29T20:45:51.638Z,45.8
2022-11-29T20:50:52.170Z,45.8
2022-11-29T20:55:52.759Z,45.8
2022-11-29T21:00:53.268Z,45.7
2022-11-29T21:05:54.000Z,45.6
2022-11-29T21:10:54.772Z,45.6
2022-11-29T21:15:55.524Z,43.9
2022-11-29T21:20:55.969Z,42.7
2022-11-29T21:25:56.624Z,42.4
2022-11-29T21:30:57.098Z,42.3
2022-11-29T21:35:57.795Z,42.2
2022-11-29T21:40:58.415Z,42.2
2022-11-29T21:45:59.250Z,42.1
2022-11-29T21:50:59.645Z,42
2022-11-29T21:56:00.262Z,41.9
2022-11-29T22:01:00.863Z,41.9
2022-11-29T22:06:01.243Z,41.8
2022-11-29T22:11:01.590Z,41.7
2022-11-29T22:16:01.953Z,41.6
2022-11-29T22:21:02.316Z,41.6
2022-11-29T22:26:02.705Z,41.5
2022-11-29T22:31:03.088Z,41.4
2022-11-29T22:36:03.438Z,41.4
2022-11-29T22:41:03.779Z,41.2
2022-11-29T22:46:04.137Z,41.2
2022-11-29T22:51:04.507Z,41.1
2022-11-29T22:56:05.110Z,41.1
2022-11-29T23:01:05.820Z,41
2022-11-29T23:06:06.659Z,40.9
2022-11-29T23:11:07.065Z,40.8
2022-11-29T23:16:07.742Z,40.8
2022-11-29T23:21:08.209Z,40.7
2022-11-29T23:26:08.608Z,40.6
2022-11-29T23:31:08.976Z,40.6
2022-11-29T23:36:09.374Z,40.5
2022-11-29T23:41:09.723Z,40.4
2022-11-29T23:46:10.366Z,40.4
2022-11-29T23:51:10.800Z,40.3
2022-11-29T23:56:11.188Z,40.2
